sensor_id;sensor_type;location;lat;lon;timestamp;P1;durP1;ratioP1;P2;durP2;ratioP2
80233;SDS011;69712;42.142;24.766;2023-05-07T00:00:18;8.38;;;6.35;;
80233;SDS011;69712;42.142;24.766;2023-05-07T00:02:48;8.63;;;6.78;;
80233;SDS011;69712;42.142;24.766;2023-05-07T00:05:58;9.65;;;7.00;;
80233;SDS011;69712;42.142;24.766;2023-05-07T00:08:24;8.77;;;6.55;;
80233;SDS011;69712;42.142;24.766;2023-05-07T01:16:05;10.85;;;8.18;;
80233;SDS011;69712;42.142;24.766;2023-05-07T01:36:18;10.70;;;8.57;;
80233;SDS011;69712;42.142;24.766;2023-05-07T02:24:07;15.23;;;11.48;;
80233;SDS011;69712;42.142;24.766;2023-05-07T02:26:36;15.65;;;11.10;;
80233;SDS011;69712;42.142;24.766;2023-05-07T02:40:06;12.68;;;9.73;;
80233;SDS011;69712;42.142;24.766;2023-05-07T02:43:22;13.00;;;10.15;;
80233;SDS011;69712;42.142;24.766;2023-05-07T03:13:26;11.40;;;10.10;;
80233;SDS011;69712;42.142;24.766;2023-05-07T03:16:33;13.10;;;10.68;;
80233;SDS011;69712;42.142;24.766;2023-05-07T03:25:49;16.00;;;11.45;;
80233;SDS011;69712;42.142;24.766;2023-05-07T03:28:30;13.38;;;11.27;;
80233;SDS011;69712;42.142;24.766;2023-05-07T03:31:01;13.10;;;11.23;;
80233;SDS011;69712;42.142;24.766;2023-05-07T03:33:33;14.43;;;11.23;;
80233;SDS011;69712;42.142;24.766;2023-05-07T03:36:05;14.60;;;11.40;;
80233;SDS011;69712;42.142;24.766;2023-05-07T03:38:31;15.82;;;12.20;;
80233;SDS011;69712;42.142;24.766;2023-05-07T03:40:57;15.00;;;11.77;;
80233;SDS011;69712;42.142;24.766;2023-05-07T03:43:23;12.57;;;11.25;;
80233;SDS011;69712;42.142;24.766;2023-05-07T03:45:54;14.40;;;12.20;;
80233;SDS011;69712;42.142;24.766;2023-05-07T03:48:20;15.65;;;11.63;;
80233;SDS011;69712;42.142;24.766;2023-05-07T03:50:52;19.05;;;11.80;;
80233;SDS011;69712;42.142;24.766;2023-05-07T03:53:23;14.00;;;11.82;;
80233;SDS011;69712;42.142;24.766;2023-05-07T03:55:49;15.55;;;12.40;;
80233;SDS011;69712;42.142;24.766;2023-05-07T03:58:15;15.05;;;11.73;;
80233;SDS011;69712;42.142;24.766;2023-05-07T04:00:41;16.70;;;12.65;;
80233;SDS011;69712;42.142;24.766;2023-05-07T04:03:07;15.73;;;11.45;;
80233;SDS011;69712;42.142;24.766;2023-05-07T04:05:33;13.88;;;11.32;;
80233;SDS011;69712;42.142;24.766;2023-05-07T04:07:59;13.90;;;11.40;;
80233;SDS011;69712;42.142;24.766;2023-05-07T04:10:25;15.23;;;11.98;;
80233;SDS011;69712;42.142;24.766;2023-05-07T04:13:03;13.90;;;11.85;;
80233;SDS011;69712;42.142;24.766;2023-05-07T04:15:43;14.00;;;12.50;;
80233;SDS011;69712;42.142;24.766;2023-05-07T04:18:15;17.35;;;12.38;;
80233;SDS011;69712;42.142;24.766;2023-05-07T04:20:44;16.92;;;12.38;;
80233;SDS011;69712;42.142;24.766;2023-05-07T04:23:11;16.75;;;13.15;;
80233;SDS011;69712;42.142;24.766;2023-05-07T04:25:45;17.20;;;12.93;;
80233;SDS011;69712;42.142;24.766;2023-05-07T04:28:19;15.77;;;12.23;;
80233;SDS011;69712;42.142;24.766;2023-05-07T04:30:54;14.75;;;11.65;;
80233;SDS011;69712;42.142;24.766;2023-05-07T04:33:20;14.77;;;12.32;;
80233;SDS011;69712;42.142;24.766;2023-05-07T04:35:46;15.23;;;11.20;;
80233;SDS011;69712;42.142;24.766;2023-05-07T04:38:12;12.88;;;10.75;;
80233;SDS011;69712;42.142;24.766;2023-05-07T04:40:38;12.48;;;11.15;;
80233;SDS011;69712;42.142;24.766;2023-05-07T04:43:04;13.98;;;11.25;;
80233;SDS011;69712;42.142;24.766;2023-05-07T04:45:29;13.13;;;11.63;;
80233;SDS011;69712;42.142;24.766;2023-05-07T04:47:55;15.27;;;11.45;;
80233;SDS011;69712;42.142;24.766;2023-05-07T04:50:21;14.32;;;11.13;;
80233;SDS011;69712;42.142;24.766;2023-05-07T04:53:00;13.88;;;10.98;;
80233;SDS011;69712;42.142;24.766;2023-05-07T04:55:38;13.75;;;11.05;;
80233;SDS011;69712;42.142;24.766;2023-05-07T04:58:03;13.80;;;10.98;;
80233;SDS011;69712;42.142;24.766;2023-05-07T05:00:30;13.25;;;11.75;;
80233;SDS011;69712;42.142;24.766;2023-05-07T05:02:56;13.18;;;10.52;;
80233;SDS011;69712;42.142;24.766;2023-05-07T05:05:21;13.45;;;10.40;;
80233;SDS011;69712;42.142;24.766;2023-05-07T05:07:50;16.20;;;10.15;;
80233;SDS011;69712;42.142;24.766;2023-05-07T05:10:20;11.98;;;10.25;;
80233;SDS011;69712;42.142;24.766;2023-05-07T05:12:55;12.00;;;10.15;;
80233;SDS011;69712;42.142;24.766;2023-05-07T05:15:20;11.32;;;9.90;;
80233;SDS011;69712;42.142;24.766;2023-05-07T05:17:55;11.02;;;9.73;;
80233;SDS011;69712;42.142;24.766;2023-05-07T05:20:21;12.50;;;10.25;;
80233;SDS011;69712;42.142;24.766;2023-05-07T05:22:55;13.18;;;10.32;;
80233;SDS011;69712;42.142;24.766;2023-05-07T05:25:21;15.70;;;10.40;;
80233;SDS011;69712;42.142;24.766;2023-05-07T05:27:47;12.75;;;9.82;;
80233;SDS011;69712;42.142;24.766;2023-05-07T05:30:15;12.88;;;10.30;;
80233;SDS011;69712;42.142;24.766;2023-05-07T05:32:41;12.52;;;10.30;;
80233;SDS011;69712;42.142;24.766;2023-05-07T05:35:10;12.60;;;9.80;;
80233;SDS011;69712;42.142;24.766;2023-05-07T05:37:35;11.35;;;9.68;;
80233;SDS011;69712;42.142;24.766;2023-05-07T05:40:01;18.73;;;10.07;;
80233;SDS011;69712;42.142;24.766;2023-05-07T05:42:27;10.88;;;9.25;;
80233;SDS011;69712;42.142;24.766;2023-05-07T05:44:55;12.70;;;9.20;;
80233;SDS011;69712;42.142;24.766;2023-05-07T05:47:21;12.05;;;8.98;;
80233;SDS011;69712;42.142;24.766;2023-05-07T05:49:50;12.40;;;8.90;;
80233;SDS011;69712;42.142;24.766;2023-05-07T05:55:39;9.45;;;8.07;;
80233;SDS011;69712;42.142;24.766;2023-05-07T05:58:40;11.52;;;8.50;;
80233;SDS011;69712;42.142;24.766;2023-05-07T06:01:06;11.55;;;8.27;;
80233;SDS011;69712;42.142;24.766;2023-05-07T06:03:32;9.52;;;8.50;;
80233;SDS011;69712;42.142;24.766;2023-05-07T06:05:57;11.45;;;7.60;;
80233;SDS011;69712;42.142;24.766;2023-05-07T06:08:24;19.05;;;9.90;;
80233;SDS011;69712;42.142;24.766;2023-05-07T06:10:50;9.52;;;8.23;;
80233;SDS011;69712;42.142;24.766;2023-05-07T06:13:16;11.85;;;8.98;;
80233;SDS011;69712;42.142;24.766;2023-05-07T06:15:42;11.02;;;8.05;;
80233;SDS011;69712;42.142;24.766;2023-05-07T06:18:08;11.65;;;8.10;;
80233;SDS011;69712;42.142;24.766;2023-05-07T06:20:33;12.15;;;8.32;;
80233;SDS011;69712;42.142;24.766;2023-05-07T06:22:59;12.40;;;9.00;;
80233;SDS011;69712;42.142;24.766;2023-05-07T06:25:25;11.50;;;8.40;;
80233;SDS011;69712;42.142;24.766;2023-05-07T06:27:51;11.18;;;8.15;;
80233;SDS011;69712;42.142;24.766;2023-05-07T06:30:16;11.80;;;7.55;;
80233;SDS011;69712;42.142;24.766;2023-05-07T06:32:42;13.50;;;8.60;;
80233;SDS011;69712;42.142;24.766;2023-05-07T06:35:08;9.23;;;7.50;;
80233;SDS011;69712;42.142;24.766;2023-05-07T06:37:33;10.52;;;7.38;;
80233;SDS011;69712;42.142;24.766;2023-05-07T06:39:59;10.27;;;6.95;;
80233;SDS011;69712;42.142;24.766;2023-05-07T06:42:25;9.18;;;6.75;;
80233;SDS011;69712;42.142;24.766;2023-05-07T06:44:52;8.80;;;6.47;;
80233;SDS011;69712;42.142;24.766;2023-05-07T06:47:18;11.98;;;6.97;;
80233;SDS011;69712;42.142;24.766;2023-05-07T06:49:43;9.60;;;7.93;;
80233;SDS011;69712;42.142;24.766;2023-05-07T06:52:09;11.00;;;6.93;;
80233;SDS011;69712;42.142;24.766;2023-05-07T06:54:35;10.38;;;6.97;;
80233;SDS011;69712;42.142;24.766;2023-05-07T06:57:00;10.95;;;7.38;;
80233;SDS011;69712;42.142;24.766;2023-05-07T06:59:26;8.23;;;6.70;;
80233;SDS011;69712;42.142;24.766;2023-05-07T07:01:52;8.60;;;6.90;;
80233;SDS011;69712;42.142;24.766;2023-05-07T07:04:17;9.90;;;6.43;;
80233;SDS011;69712;42.142;24.766;2023-05-07T07:06:43;10.75;;;6.95;;
80233;SDS011;69712;42.142;24.766;2023-05-07T07:09:09;10.70;;;6.47;;
80233;SDS011;69712;42.142;24.766;2023-05-07T07:11:34;8.18;;;6.35;;
80233;SDS011;69712;42.142;24.766;2023-05-07T07:14:00;9.68;;;6.85;;
80233;SDS011;69712;42.142;24.766;2023-05-07T07:16:26;8.32;;;6.50;;
80233;SDS011;69712;42.142;24.766;2023-05-07T07:18:52;11.02;;;6.60;;
80233;SDS011;69712;42.142;24.766;2023-05-07T07:21:17;8.52;;;6.10;;
80233;SDS011;69712;42.142;24.766;2023-05-07T07:23:43;9.23;;;6.47;;
80233;SDS011;69712;42.142;24.766;2023-05-07T07:26:09;9.38;;;6.38;;
80233;SDS011;69712;42.142;24.766;2023-05-07T07:28:34;11.63;;;6.70;;
80233;SDS011;69712;42.142;24.766;2023-05-07T07:31:06;8.48;;;6.60;;
80233;SDS011;69712;42.142;24.766;2023-05-07T07:33:32;8.60;;;7.10;;
80233;SDS011;69712;42.142;24.766;2023-05-07T07:35:57;8.48;;;6.13;;
80233;SDS011;69712;42.142;24.766;2023-05-07T07:38:23;9.10;;;6.13;;
80233;SDS011;69712;42.142;24.766;2023-05-07T07:40:49;11.57;;;6.15;;
80233;SDS011;69712;42.142;24.766;2023-05-07T07:43:15;8.43;;;6.00;;
80233;SDS011;69712;42.142;24.766;2023-05-07T07:45:40;11.30;;;6.60;;
80233;SDS011;69712;42.142;24.766;2023-05-07T07:48:06;9.07;;;6.85;;
80233;SDS011;69712;42.142;24.766;2023-05-07T07:50:32;9.02;;;6.68;;
80233;SDS011;69712;42.142;24.766;2023-05-07T07:52:58;10.73;;;6.80;;
80233;SDS011;69712;42.142;24.766;2023-05-07T07:55:23;8.93;;;6.80;;
80233;SDS011;69712;42.142;24.766;2023-05-07T07:57:49;12.55;;;7.30;;
80233;SDS011;69712;42.142;24.766;2023-05-07T08:00:15;9.18;;;6.63;;
80233;SDS011;69712;42.142;24.766;2023-05-07T08:02:41;8.07;;;6.03;;
80233;SDS011;69712;42.142;24.766;2023-05-07T08:05:07;9.90;;;6.90;;
80233;SDS011;69712;42.142;24.766;2023-05-07T08:07:33;9.85;;;6.47;;
80233;SDS011;69712;42.142;24.766;2023-05-07T08:09:59;8.50;;;6.40;;
80233;SDS011;69712;42.142;24.766;2023-05-07T08:12:24;9.68;;;6.13;;
80233;SDS011;69712;42.142;24.766;2023-05-07T08:14:50;10.88;;;6.35;;
80233;SDS011;69712;42.142;24.766;2023-05-07T08:17:16;7.40;;;5.63;;
80233;SDS011;69712;42.142;24.766;2023-05-07T08:19:42;26.77;;;21.75;;
80233;SDS011;69712;42.142;24.766;2023-05-07T08:22:09;8.57;;;5.55;;
80233;SDS011;69712;42.142;24.766;2023-05-07T08:24:35;5.95;;;4.50;;
80233;SDS011;69712;42.142;24.766;2023-05-07T08:27:01;6.15;;;5.00;;
80233;SDS011;69712;42.142;24.766;2023-05-07T08:29:27;7.10;;;4.90;;
80233;SDS011;69712;42.142;24.766;2023-05-07T08:31:53;7.65;;;4.22;;
80233;SDS011;69712;42.142;24.766;2023-05-07T08:34:19;5.20;;;3.78;;
80233;SDS011;69712;42.142;24.766;2023-05-07T08:36:44;8.35;;;3.72;;
80233;SDS011;69712;42.142;24.766;2023-05-07T08:39:13;7.43;;;4.00;;
80233;SDS011;69712;42.142;24.766;2023-05-07T08:41:45;6.63;;;4.38;;
80233;SDS011;69712;42.142;24.766;2023-05-07T08:44:12;6.70;;;5.20;;
80233;SDS011;69712;42.142;24.766;2023-05-07T08:46:42;7.65;;;4.15;;
80233;SDS011;69712;42.142;24.766;2023-05-07T08:49:11;7.65;;;4.28;;
80233;SDS011;69712;42.142;24.766;2023-05-07T08:51:37;12.07;;;8.23;;
80233;SDS011;69712;42.142;24.766;2023-05-07T08:54:03;9.00;;;4.55;;
80233;SDS011;69712;42.142;24.766;2023-05-07T08:56:30;7.53;;;3.80;;
80233;SDS011;69712;42.142;24.766;2023-05-07T08:58:56;6.07;;;4.07;;
80233;SDS011;69712;42.142;24.766;2023-05-07T09:01:23;6.20;;;4.20;;
80233;SDS011;69712;42.142;24.766;2023-05-07T09:03:50;8.05;;;4.43;;
80233;SDS011;69712;42.142;24.766;2023-05-07T09:06:16;8.00;;;3.40;;
80233;SDS011;69712;42.142;24.766;2023-05-07T09:08:48;3.80;;;3.30;;
80233;SDS011;69712;42.142;24.766;2023-05-07T09:11:15;6.38;;;3.85;;
80233;SDS011;69712;42.142;24.766;2023-05-07T09:13:41;5.85;;;3.30;;
80233;SDS011;69712;42.142;24.766;2023-05-07T09:16:11;5.25;;;3.70;;
80233;SDS011;69712;42.142;24.766;2023-05-07T09:18:41;4.18;;;3.10;;
80233;SDS011;69712;42.142;24.766;2023-05-07T09:21:11;7.03;;;3.00;;
80233;SDS011;69712;42.142;24.766;2023-05-07T09:23:40;3.65;;;3.10;;
80233;SDS011;69712;42.142;24.766;2023-05-07T09:26:06;5.65;;;3.03;;
80233;SDS011;69712;42.142;24.766;2023-05-07T09:28:37;7.18;;;3.17;;
80233;SDS011;69712;42.142;24.766;2023-05-07T09:31:07;6.05;;;3.35;;
80233;SDS011;69712;42.142;24.766;2023-05-07T09:33:33;4.63;;;2.90;;
80233;SDS011;69712;42.142;24.766;2023-05-07T09:36:02;4.47;;;3.38;;
80233;SDS011;69712;42.142;24.766;2023-05-07T09:38:34;4.88;;;3.40;;
80233;SDS011;69712;42.142;24.766;2023-05-07T09:41:11;4.93;;;4.10;;
80233;SDS011;69712;42.142;24.766;2023-05-07T09:43:38;6.03;;;3.92;;
80233;SDS011;69712;42.142;24.766;2023-05-07T09:46:09;8.10;;;4.40;;
80233;SDS011;69712;42.142;24.766;2023-05-07T09:48:39;5.75;;;3.65;;
80233;SDS011;69712;42.142;24.766;2023-05-07T09:51:15;4.65;;;3.70;;
80233;SDS011;69712;42.142;24.766;2023-05-07T09:53:47;6.30;;;3.88;;
80233;SDS011;69712;42.142;24.766;2023-05-07T09:56:15;6.75;;;3.80;;
80233;SDS011;69712;42.142;24.766;2023-05-07T09:58:43;9.43;;;3.83;;
80233;SDS011;69712;42.142;24.766;2023-05-07T10:01:10;6.13;;;4.05;;
80233;SDS011;69712;42.142;24.766;2023-05-07T10:03:37;5.78;;;3.70;;
80233;SDS011;69712;42.142;24.766;2023-05-07T10:06:06;6.57;;;4.00;;
80233;SDS011;69712;42.142;24.766;2023-05-07T10:08:37;7.07;;;4.22;;
80233;SDS011;69712;42.142;24.766;2023-05-07T10:11:03;6.05;;;4.10;;
80233;SDS011;69712;42.142;24.766;2023-05-07T10:13:31;6.13;;;4.30;;
80233;SDS011;69712;42.142;24.766;2023-05-07T10:16:00;7.10;;;4.10;;
80233;SDS011;69712;42.142;24.766;2023-05-07T10:18:28;5.35;;;4.30;;
80233;SDS011;69712;42.142;24.766;2023-05-07T10:21:02;6.20;;;4.32;;
80233;SDS011;69712;42.142;24.766;2023-05-07T10:23:32;8.52;;;4.00;;
80233;SDS011;69712;42.142;24.766;2023-05-07T10:26:00;4.50;;;3.65;;
80233;SDS011;69712;42.142;24.766;2023-05-07T10:28:28;6.40;;;4.30;;
80233;SDS011;69712;42.142;24.766;2023-05-07T10:31:08;5.88;;;4.00;;
80233;SDS011;69712;42.142;24.766;2023-05-07T10:33:54;6.38;;;4.10;;
80233;SDS011;69712;42.142;24.766;2023-05-07T10:36:21;6.32;;;3.63;;
80233;SDS011;69712;42.142;24.766;2023-05-07T10:38:48;5.55;;;3.90;;
80233;SDS011;69712;42.142;24.766;2023-05-07T10:41:14;4.72;;;3.78;;
80233;SDS011;69712;42.142;24.766;2023-05-07T10:43:42;5.60;;;3.50;;
80233;SDS011;69712;42.142;24.766;2023-05-07T10:46:10;4.20;;;3.58;;
80233;SDS011;69712;42.142;24.766;2023-05-07T10:51:32;9.77;;;4.18;;
80233;SDS011;69712;42.142;24.766;2023-05-07T10:56:39;6.45;;;3.50;;
80233;SDS011;69712;42.142;24.766;2023-05-07T11:04:16;3.80;;;3.45;;
80233;SDS011;69712;42.142;24.766;2023-05-07T11:06:52;4.72;;;3.78;;
80233;SDS011;69712;42.142;24.766;2023-05-07T11:15:04;5.55;;;3.40;;
80233;SDS011;69712;42.142;24.766;2023-05-07T11:17:31;7.15;;;3.60;;
80233;SDS011;69712;42.142;24.766;2023-05-07T11:19:59;6.93;;;4.18;;
80233;SDS011;69712;42.142;24.766;2023-05-07T11:25:04;5.57;;;3.42;;
80233;SDS011;69712;42.142;24.766;2023-05-07T11:27:31;4.93;;;4.40;;
80233;SDS011;69712;42.142;24.766;2023-05-07T11:29:58;8.10;;;3.35;;
80233;SDS011;69712;42.142;24.766;2023-05-07T11:32:26;5.35;;;3.30;;
80233;SDS011;69712;42.142;24.766;2023-05-07T11:34:57;3.75;;;3.30;;
80233;SDS011;69712;42.142;24.766;2023-05-07T11:37:24;5.47;;;3.65;;
80233;SDS011;69712;42.142;24.766;2023-05-07T11:40:01;6.55;;;3.55;;
80233;SDS011;69712;42.142;24.766;2023-05-07T11:42:30;3.50;;;3.10;;
80233;SDS011;69712;42.142;24.766;2023-05-07T11:45:02;4.13;;;3.13;;
80233;SDS011;69712;42.142;24.766;2023-05-07T11:47:32;5.43;;;3.58;;
80233;SDS011;69712;42.142;24.766;2023-05-07T11:50:02;4.80;;;3.30;;
80233;SDS011;69712;42.142;24.766;2023-05-07T11:52:32;5.40;;;3.65;;
80233;SDS011;69712;42.142;24.766;2023-05-07T11:54:59;5.85;;;3.88;;
80233;SDS011;69712;42.142;24.766;2023-05-07T11:57:26;4.22;;;3.42;;
80233;SDS011;69712;42.142;24.766;2023-05-07T11:59:56;5.30;;;3.38;;
80233;SDS011;69712;42.142;24.766;2023-05-07T12:02:22;4.57;;;3.35;;
80233;SDS011;69712;42.142;24.766;2023-05-07T12:04:53;6.20;;;3.40;;
80233;SDS011;69712;42.142;24.766;2023-05-07T12:07:19;5.63;;;3.40;;
80233;SDS011;69712;42.142;24.766;2023-05-07T12:09:45;4.35;;;3.53;;
80233;SDS011;69712;42.142;24.766;2023-05-07T12:12:12;6.93;;;4.00;;
80233;SDS011;69712;42.142;24.766;2023-05-07T12:14:43;4.15;;;3.45;;
80233;SDS011;69712;42.142;24.766;2023-05-07T12:17:11;3.72;;;3.30;;
80233;SDS011;69712;42.142;24.766;2023-05-07T12:19:39;5.75;;;3.60;;
80233;SDS011;69712;42.142;24.766;2023-05-07T12:22:08;4.85;;;3.83;;
80233;SDS011;69712;42.142;24.766;2023-05-07T12:24:56;5.95;;;3.92;;
80233;SDS011;69712;42.142;24.766;2023-05-07T12:27:22;5.30;;;3.97;;
80233;SDS011;69712;42.142;24.766;2023-05-07T12:29:49;4.68;;;3.70;;
80233;SDS011;69712;42.142;24.766;2023-05-07T12:32:16;4.53;;;3.70;;
80233;SDS011;69712;42.142;24.766;2023-05-07T12:34:43;4.00;;;3.60;;
80233;SDS011;69712;42.142;24.766;2023-05-07T12:37:10;4.75;;;3.60;;
80233;SDS011;69712;42.142;24.766;2023-05-07T12:39:35;4.97;;;3.70;;
80233;SDS011;69712;42.142;24.766;2023-05-07T12:42:01;7.22;;;3.67;;
80233;SDS011;69712;42.142;24.766;2023-05-07T12:44:33;5.47;;;3.60;;
80233;SDS011;69712;42.142;24.766;2023-05-07T12:47:03;6.47;;;3.78;;
80233;SDS011;69712;42.142;24.766;2023-05-07T12:49:28;10.25;;;4.15;;
80233;SDS011;69712;42.142;24.766;2023-05-07T12:51:54;4.25;;;3.80;;
80233;SDS011;69712;42.142;24.766;2023-05-07T12:54:27;6.82;;;3.60;;
80233;SDS011;69712;42.142;24.766;2023-05-07T12:57:05;5.22;;;3.60;;
80233;SDS011;69712;42.142;24.766;2023-05-07T12:59:33;3.85;;;3.40;;
80233;SDS011;69712;42.142;24.766;2023-05-07T13:02:02;6.03;;;3.80;;
80233;SDS011;69712;42.142;24.766;2023-05-07T13:04:29;3.83;;;3.40;;
80233;SDS011;69712;42.142;24.766;2023-05-07T13:06:55;4.13;;;3.65;;
80233;SDS011;69712;42.142;24.766;2023-05-07T13:09:20;6.47;;;3.40;;
80233;SDS011;69712;42.142;24.766;2023-05-07T13:11:46;7.78;;;3.70;;
80233;SDS011;69712;42.142;24.766;2023-05-07T13:14:12;5.28;;;3.20;;
80233;SDS011;69712;42.142;24.766;2023-05-07T13:16:37;4.93;;;3.80;;
80233;SDS011;69712;42.142;24.766;2023-05-07T13:19:03;5.40;;;3.30;;
80233;SDS011;69712;42.142;24.766;2023-05-07T13:21:29;5.80;;;3.50;;
80233;SDS011;69712;42.142;24.766;2023-05-07T13:23:58;5.53;;;3.35;;
80233;SDS011;69712;42.142;24.766;2023-05-07T13:26:24;3.92;;;3.50;;
80233;SDS011;69712;42.142;24.766;2023-05-07T13:28:51;5.10;;;3.30;;
80233;SDS011;69712;42.142;24.766;2023-05-07T13:31:19;9.27;;;3.10;;
80233;SDS011;69712;42.142;24.766;2023-05-07T13:33:46;7.18;;;3.38;;
80233;SDS011;69712;42.142;24.766;2023-05-07T13:36:12;3.97;;;2.95;;
80233;SDS011;69712;42.142;24.766;2023-05-07T13:38:38;5.45;;;3.22;;
80233;SDS011;69712;42.142;24.766;2023-05-07T13:41:04;3.30;;;3.00;;
80233;SDS011;69712;42.142;24.766;2023-05-07T13:43:30;3.38;;;2.83;;
80233;SDS011;69712;42.142;24.766;2023-05-07T13:45:58;3.70;;;2.88;;
80233;SDS011;69712;42.142;24.766;2023-05-07T13:48:25;3.13;;;2.83;;
80233;SDS011;69712;42.142;24.766;2023-05-07T13:50:50;4.45;;;2.90;;
80233;SDS011;69712;42.142;24.766;2023-05-07T13:53:16;3.58;;;2.80;;
80233;SDS011;69712;42.142;24.766;2023-05-07T13:55:43;4.05;;;3.10;;
80233;SDS011;69712;42.142;24.766;2023-05-07T13:58:10;3.22;;;2.85;;
80233;SDS011;69712;42.142;24.766;2023-05-07T14:00:36;4.90;;;2.90;;
80233;SDS011;69712;42.142;24.766;2023-05-07T14:03:02;6.03;;;2.95;;
80233;SDS011;69712;42.142;24.766;2023-05-07T14:05:29;4.68;;;2.78;;
80233;SDS011;69712;42.142;24.766;2023-05-07T14:07:56;3.63;;;2.90;;
80233;SDS011;69712;42.142;24.766;2023-05-07T14:10:23;5.10;;;2.80;;
80233;SDS011;69712;42.142;24.766;2023-05-07T14:12:50;3.33;;;2.80;;
80233;SDS011;69712;42.142;24.766;2023-05-07T14:15:17;3.30;;;3.00;;
80233;SDS011;69712;42.142;24.766;2023-05-07T14:17:43;7.75;;;3.05;;
80233;SDS011;69712;42.142;24.766;2023-05-07T14:20:09;6.57;;;3.03;;
80233;SDS011;69712;42.142;24.766;2023-05-07T14:22:35;6.30;;;3.28;;
80233;SDS011;69712;42.142;24.766;2023-05-07T14:25:01;3.00;;;2.67;;
80233;SDS011;69712;42.142;24.766;2023-05-07T14:27:27;3.33;;;2.75;;
80233;SDS011;69712;42.142;24.766;2023-05-07T14:29:53;3.53;;;2.85;;
80233;SDS011;69712;42.142;24.766;2023-05-07T14:32:18;4.90;;;2.80;;
80233;SDS011;69712;42.142;24.766;2023-05-07T14:34:45;4.75;;;4.28;;
80233;SDS011;69712;42.142;24.766;2023-05-07T14:37:11;4.93;;;2.92;;
80233;SDS011;69712;42.142;24.766;2023-05-07T14:39:37;4.70;;;2.95;;
80233;SDS011;69712;42.142;24.766;2023-05-07T14:42:03;3.67;;;3.00;;
80233;SDS011;69712;42.142;24.766;2023-05-07T14:44:29;3.00;;;2.70;;
80233;SDS011;69712;42.142;24.766;2023-05-07T14:46:56;5.90;;;3.10;;
80233;SDS011;69712;42.142;24.766;2023-05-07T14:49:23;5.32;;;2.97;;
80233;SDS011;69712;42.142;24.766;2023-05-07T14:51:49;4.47;;;2.80;;
80233;SDS011;69712;42.142;24.766;2023-05-07T14:54:15;3.10;;;2.80;;
80233;SDS011;69712;42.142;24.766;2023-05-07T14:56:41;2.88;;;2.58;;
80233;SDS011;69712;42.142;24.766;2023-05-07T14:59:07;3.83;;;2.70;;
80233;SDS011;69712;42.142;24.766;2023-05-07T15:01:34;3.55;;;2.65;;
80233;SDS011;69712;42.142;24.766;2023-05-07T15:04:01;3.25;;;2.70;;
80233;SDS011;69712;42.142;24.766;2023-05-07T15:06:30;4.65;;;3.63;;
80233;SDS011;69712;42.142;24.766;2023-05-07T15:08:56;6.45;;;2.63;;
80233;SDS011;69712;42.142;24.766;2023-05-07T15:11:23;3.60;;;2.80;;
80233;SDS011;69712;42.142;24.766;2023-05-07T15:13:49;4.80;;;2.80;;
80233;SDS011;69712;42.142;24.766;2023-05-07T15:16:15;6.97;;;2.80;;
80233;SDS011;69712;42.142;24.766;2023-05-07T15:18:41;6.00;;;3.42;;
80233;SDS011;69712;42.142;24.766;2023-05-07T15:21:06;4.20;;;3.00;;
80233;SDS011;69712;42.142;24.766;2023-05-07T15:23:32;3.80;;;3.05;;
80233;SDS011;69712;42.142;24.766;2023-05-07T15:25:58;4.35;;;2.80;;
80233;SDS011;69712;42.142;24.766;2023-05-07T15:28:24;3.80;;;2.58;;
80233;SDS011;69712;42.142;24.766;2023-05-07T15:30:50;5.53;;;2.90;;
80233;SDS011;69712;42.142;24.766;2023-05-07T15:33:15;4.18;;;2.70;;
80233;SDS011;69712;42.142;24.766;2023-05-07T15:35:41;5.18;;;2.83;;
80233;SDS011;69712;42.142;24.766;2023-05-07T15:38:07;4.82;;;2.80;;
80233;SDS011;69712;42.142;24.766;2023-05-07T15:40:33;4.30;;;2.80;;
80233;SDS011;69712;42.142;24.766;2023-05-07T15:43:02;5.10;;;2.90;;
80233;SDS011;69712;42.142;24.766;2023-05-07T15:45:28;2.53;;;2.33;;
80233;SDS011;69712;42.142;24.766;2023-05-07T15:47:54;3.78;;;2.55;;
80233;SDS011;69712;42.142;24.766;2023-05-07T15:50:20;5.25;;;3.65;;
80233;SDS011;69712;42.142;24.766;2023-05-07T15:52:45;5.57;;;4.00;;
80233;SDS011;69712;42.142;24.766;2023-05-07T15:55:11;6.97;;;4.57;;
80233;SDS011;69712;42.142;24.766;2023-05-07T15:57:37;6.65;;;4.55;;
80233;SDS011;69712;42.142;24.766;2023-05-07T16:00:03;3.88;;;2.80;;
80233;SDS011;69712;42.142;24.766;2023-05-07T16:02:30;3.60;;;2.63;;
80233;SDS011;69712;42.142;24.766;2023-05-07T16:04:56;4.63;;;2.75;;
80233;SDS011;69712;42.142;24.766;2023-05-07T16:07:22;6.55;;;2.90;;
80233;SDS011;69712;42.142;24.766;2023-05-07T16:09:47;5.13;;;2.58;;
80233;SDS011;69712;42.142;24.766;2023-05-07T16:12:14;6.38;;;3.13;;
80233;SDS011;69712;42.142;24.766;2023-05-07T16:14:39;5.72;;;2.50;;
80233;SDS011;69712;42.142;24.766;2023-05-07T16:17:05;4.97;;;2.85;;
80233;SDS011;69712;42.142;24.766;2023-05-07T16:19:38;3.75;;;2.60;;
80233;SDS011;69712;42.142;24.766;2023-05-07T16:22:04;3.08;;;2.40;;
80233;SDS011;69712;42.142;24.766;2023-05-07T16:24:30;5.70;;;2.70;;
80233;SDS011;69712;42.142;24.766;2023-05-07T16:26:56;5.65;;;2.53;;
80233;SDS011;69712;42.142;24.766;2023-05-07T16:32:09;4.47;;;3.03;;
80233;SDS011;69712;42.142;24.766;2023-05-07T16:34:35;4.57;;;3.20;;
80233;SDS011;69712;42.142;24.766;2023-05-07T16:37:02;8.07;;;3.30;;
80233;SDS011;69712;42.142;24.766;2023-05-07T16:39:28;8.20;;;3.58;;
80233;SDS011;69712;42.142;24.766;2023-05-07T16:41:54;6.00;;;3.03;;
80233;SDS011;69712;42.142;24.766;2023-05-07T16:44:20;5.28;;;3.00;;
80233;SDS011;69712;42.142;24.766;2023-05-07T16:46:45;3.72;;;2.95;;
80233;SDS011;69712;42.142;24.766;2023-05-07T16:49:11;5.38;;;3.10;;
80233;SDS011;69712;42.142;24.766;2023-05-07T16:51:37;7.22;;;2.90;;
80233;SDS011;69712;42.142;24.766;2023-05-07T16:54:03;4.38;;;2.50;;
80233;SDS011;69712;42.142;24.766;2023-05-07T16:56:29;2.97;;;2.67;;
80233;SDS011;69712;42.142;24.766;2023-05-07T16:58:54;7.93;;;2.83;;
80233;SDS011;69712;42.142;24.766;2023-05-07T17:01:20;5.35;;;2.88;;
80233;SDS011;69712;42.142;24.766;2023-05-07T17:03:46;5.72;;;2.88;;
80233;SDS011;69712;42.142;24.766;2023-05-07T17:06:11;5.75;;;2.78;;
80233;SDS011;69712;42.142;24.766;2023-05-07T17:08:39;3.25;;;2.67;;
80233;SDS011;69712;42.142;24.766;2023-05-07T17:11:08;5.25;;;2.63;;
80233;SDS011;69712;42.142;24.766;2023-05-07T17:13:34;6.15;;;3.08;;
80233;SDS011;69712;42.142;24.766;2023-05-07T17:16:00;5.22;;;3.00;;
80233;SDS011;69712;42.142;24.766;2023-05-07T17:18:26;4.97;;;2.90;;
80233;SDS011;69712;42.142;24.766;2023-05-07T17:20:52;7.75;;;4.35;;
80233;SDS011;69712;42.142;24.766;2023-05-07T17:23:17;4.13;;;3.17;;
80233;SDS011;69712;42.142;24.766;2023-05-07T17:25:43;6.50;;;3.20;;
80233;SDS011;69712;42.142;24.766;2023-05-07T17:28:12;4.75;;;3.30;;
80233;SDS011;69712;42.142;24.766;2023-05-07T17:30:38;5.85;;;2.97;;
80233;SDS011;69712;42.142;24.766;2023-05-07T17:33:04;4.45;;;2.65;;
80233;SDS011;69712;42.142;24.766;2023-05-07T17:35:30;3.83;;;2.83;;
80233;SDS011;69712;42.142;24.766;2023-05-07T17:37:57;4.90;;;3.33;;
80233;SDS011;69712;42.142;24.766;2023-05-07T17:40:26;4.78;;;3.50;;
80233;SDS011;69712;42.142;24.766;2023-05-07T17:42:53;4.90;;;2.80;;
80233;SDS011;69712;42.142;24.766;2023-05-07T17:45:20;8.65;;;2.90;;
80233;SDS011;69712;42.142;24.766;2023-05-07T17:47:45;4.38;;;2.88;;
80233;SDS011;69712;42.142;24.766;2023-05-07T17:50:12;3.88;;;3.10;;